createdAt,value
2019-02-18T00:04:16.866Z,54.2
2019-02-18T00:05:16.787Z,54.8
2019-02-18T00:06:16.907Z,55
2019-02-18T00:07:16.809Z,55.2
2019-02-18T00:08:16.713Z,55.3
2019-02-18T00:09:16.615Z,55.3
2019-02-18T00:10:16.810Z,55.3
2019-02-18T00:11:16.721Z,55.5
2019-02-18T00:12:16.618Z,55.7
2019-02-18T00:13:16.494Z,55.8
2019-02-18T00:14:16.827Z,55.9
2019-02-18T00:15:16.721Z,55.7
2019-02-18T00:16:16.617Z,55.3
2019-02-18T00:24:15.529Z,54.5
2019-02-18T00:25:15.432Z,55.1
2019-02-18T00:26:16.317Z,55
2019-02-18T00:27:16.216Z,55.3
2019-02-18T00:28:16.098Z,55.5
2019-02-18T00:29:15.975Z,55.5
2019-02-18T00:30:15.888Z,55.6
2019-02-18T00:31:15.788Z,55.5
2019-02-18T00:32:15.688Z,55.4
2019-02-18T00:33:15.608Z,55.5
2019-02-18T00:34:18.916Z,55.6
2019-02-18T00:35:18.844Z,55.6
2019-02-18T00:36:18.742Z,55.7
2019-02-18T00:37:25.576Z,55.8
2019-02-18T00:38:25.480Z,55.8
2019-02-18T00:39:25.347Z,56
2019-02-18T00:40:25.259Z,56.1
2019-02-18T00:41:25.142Z,56.1
2019-02-18T00:42:25.082Z,56
2019-02-18T00:43:25.000Z,56.1
2019-02-18T00:44:25.528Z,56.2
2019-02-18T00:45:25.429Z,56.7
2019-02-18T00:46:25.329Z,56.1
2019-02-18T00:47:25.226Z,56.1
2019-02-18T00:48:25.276Z,56.2
2019-02-18T00:49:25.170Z,56.2
2019-02-18T00:50:25.112Z,56
2019-02-18T00:51:25.008Z,56.1
2019-02-18T00:52:24.902Z,56
2019-02-18T00:53:24.798Z,56
2019-02-18T00:54:25.184Z,55.9
2019-02-18T00:55:25.185Z,56.1
2019-02-18T01:30:33.944Z,52.2
2019-02-18T01:34:37.166Z,52.3
2019-02-18T01:35:37.060Z,52.9
2019-02-18T01:36:36.970Z,53.2
2019-02-18T01:37:46.878Z,53.4
2019-02-18T01:38:46.772Z,53.6
2019-02-18T01:39:46.718Z,53.9
2019-02-18T01:40:49.672Z,54
2019-02-18T01:41:49.590Z,54.2
2019-02-18T01:42:49.485Z,54.2
2019-02-18T01:43:49.378Z,54.5
2019-02-18T01:44:52.602Z,54.6
2019-02-18T01:45:52.486Z,54.7
2019-02-18T01:46:52.394Z,54.8
2019-02-18T01:47:52.276Z,54.7
2019-02-18T01:48:52.168Z,54.8
2019-02-18T01:49:55.092Z,54.9
2019-02-18T01:50:54.978Z,55.1
2019-02-18T01:51:54.945Z,55.2
2019-02-18T01:52:54.886Z,55.4
2019-02-18T01:53:54.778Z,55.5
2019-02-18T01:54:55.316Z,55.8
2019-02-18T01:55:55.212Z,55.8
2019-02-18T01:56:55.110Z,55.7
2019-02-18T01:57:55.004Z,55.7
2019-02-18T01:58:54.892Z,55.6
2019-02-18T01:59:54.780Z,55.5
2019-02-18T02:00:54.678Z,55.8
2019-02-18T02:01:54.558Z,55.9
2019-02-18T02:02:54.528Z,56
2019-02-18T02:03:54.420Z,56
2019-02-18T02:04:54.857Z,56
2019-02-18T02:05:54.744Z,56.1
2019-02-18T02:06:54.864Z,56.2
2019-02-18T02:07:57.402Z,56.2
2019-02-18T02:08:57.300Z,56.2
2019-02-18T02:09:57.194Z,56.2
2019-02-18T02:10:57.075Z,56.2
2019-02-18T02:11:56.955Z,56.3
2019-02-18T02:12:56.858Z,56.3
2019-02-18T02:13:56.755Z,56.2
2019-02-18T02:15:00.020Z,56.3
2019-02-18T02:16:00.030Z,56.2
2019-02-18T02:16:59.936Z,56.2
2019-02-18T02:17:59.876Z,56.2
2019-02-18T02:18:59.778Z,56.2
2019-02-18T02:20:02.636Z,56.1
2019-02-18T02:21:02.563Z,55.8
2019-02-18T02:22:02.549Z,56
2019-02-18T02:23:02.430Z,56
2019-02-18T02:24:02.347Z,56
2019-02-18T02:25:02.707Z,55.8
2019-02-18T02:26:02.602Z,56.4
2019-02-18T02:27:02.501Z,56.3
2019-02-18T02:28:02.386Z,56.1
2019-02-18T02:29:02.272Z,55.9
2019-02-18T02:30:02.475Z,55.9
2019-02-18T02:31:02.540Z,55.9
2019-02-18T02:32:02.493Z,56
2019-02-18T02:33:02.394Z,55.9
2019-02-18T02:34:02.561Z,56.1
2019-02-18T02:35:02.914Z,56
2019-02-18T02:36:02.807Z,56
2019-02-18T02:37:02.779Z,55.9
2019-02-18T02:38:08.922Z,55.9
2019-02-18T02:39:08.852Z,55.7
2019-02-18T02:40:09.855Z,55.7
2019-02-18T02:41:09.774Z,55.7
2019-02-18T02:42:09.710Z,55.7
2019-02-18T02:43:09.662Z,55.7
2019-02-18T02:44:09.581Z,55.9
2019-02-18T02:45:09.939Z,56
2019-02-18T02:55:09.058Z,54.2
2019-02-18T02:56:09.223Z,54.7
2019-02-18T02:57:09.121Z,54.9
2019-02-18T02:58:09.003Z,54.9
2019-02-18T02:59:08.912Z,55.1
2019-02-18T03:00:08.820Z,55.1
2019-02-18T03:01:08.750Z,55.3
2019-02-18T03:02:08.646Z,55.4
2019-02-18T03:03:08.562Z,55.4
2019-02-18T03:04:08.479Z,55.5
2019-02-18T03:05:08.814Z,55.1
2019-02-18T03:06:08.708Z,55.8
2019-02-18T03:07:08.588Z,55.7
2019-02-18T03:08:21.456Z,55.8
2019-02-18T03:09:21.336Z,55.9
2019-02-18T03:10:21.264Z,56
2019-02-18T03:11:21.216Z,56
2019-02-18T03:12:21.144Z,56.2
2019-02-18T03:13:21.083Z,56.1
2019-02-18T03:14:20.996Z,55.9
2019-02-18T03:15:21.349Z,56
2019-02-18T03:16:21.260Z,56.2
2019-02-18T03:17:21.169Z,56.2
2019-02-18T03:18:21.083Z,56.3
2019-02-18T03:19:20.973Z,56.3
2019-02-18T03:20:20.876Z,56.3
2019-02-18T03:21:20.763Z,56.2
2019-02-18T03:22:23.314Z,56.2
2019-02-18T03:23:23.260Z,56.2
2019-02-18T03:24:25.989Z,56.1
2019-02-18T03:25:26.346Z,55.9
2019-02-18T03:26:26.239Z,56.3
2019-02-18T03:27:26.155Z,56.3
2019-02-18T03:28:26.072Z,56.4
2019-02-18T03:29:25.969Z,56.4
2019-02-18T03:30:26.130Z,56.4
2019-02-18T03:31:26.136Z,56.5
2019-02-18T03:32:26.053Z,56.5
2019-02-18T03:33:25.992Z,56.7
2019-02-18T03:34:25.897Z,56.7
2019-02-18T03:35:26.219Z,56.6
2019-02-18T03:36:26.115Z,56.6
2019-02-18T03:37:26.189Z,56.7
2019-02-18T03:38:32.658Z,56.6
2019-02-18T03:39:32.552Z,56.7
2019-02-18T03:40:35.536Z,56.7
2019-02-18T03:41:35.421Z,56.8
2019-02-18T03:42:35.294Z,56.7
2019-02-18T03:43:35.195Z,56.8
2019-02-18T03:44:36.111Z,56.8
2019-02-18T03:45:36.423Z,56.8
2019-02-18T03:46:36.290Z,56.8
2019-02-18T03:47:36.277Z,56.9
2019-02-18T03:48:36.165Z,56.7
2019-02-18T03:49:36.062Z,56.8
2019-02-18T03:50:35.976Z,56.7
2019-02-18T03:51:35.901Z,56.7
2019-02-18T03:52:35.874Z,56.7
2019-02-18T03:53:35.799Z,56.7
2019-02-18T03:54:35.673Z,56.9
2019-02-18T03:55:35.964Z,56.8
2019-02-18T03:56:35.894Z,56.4
2019-02-18T04:05:34.201Z,54.2
2019-02-18T04:06:34.096Z,54.4
2019-02-18T04:07:34.252Z,55.2
2019-02-18T04:08:43.920Z,54.6
2019-02-18T04:09:43.820Z,54.4
2019-02-18T04:10:43.739Z,54.7
2019-02-18T04:11:43.644Z,54.8
2019-02-18T04:12:43.529Z,54.9
2019-02-18T04:13:43.551Z,55
2019-02-18T04:14:43.435Z,55.3
2019-02-18T04:15:43.736Z,55.4
2019-02-18T04:16:43.648Z,55.6
2019-02-18T04:17:43.536Z,55.6
2019-02-18T04:18:43.431Z,55.7
2019-02-18T04:19:43.307Z,55.7
2019-02-18T04:20:43.208Z,55.7
2019-02-18T04:21:43.133Z,55.7
2019-02-18T04:22:43.024Z,56.4
2019-02-18T04:23:42.963Z,55.9
2019-02-18T04:24:42.857Z,55.7
2019-02-18T04:25:43.157Z,55.5
2019-02-18T04:26:43.139Z,55.6
2019-02-18T04:35:42.730Z,53.4
2019-02-18T04:36:42.619Z,54
2019-02-18T04:37:42.559Z,54.3
2019-02-18T04:38:54.519Z,54.5
2019-02-18T04:39:54.696Z,54.6
2019-02-18T04:40:54.645Z,54.8
2019-02-18T04:41:54.551Z,54.7
2019-02-18T04:42:54.490Z,54.8
2019-02-18T04:43:54.410Z,54.8
2019-02-18T04:44:54.317Z,55
2019-02-18T04:45:54.639Z,55.2
2019-02-18T04:46:54.518Z,55.2
2019-02-18T04:47:54.416Z,55.3
2019-02-18T04:48:54.311Z,55.3
2019-02-18T04:49:54.181Z,55.4
2019-02-18T04:50:54.054Z,55.6
2019-02-18T04:51:53.934Z,55.6
2019-02-18T04:52:53.846Z,55.6
2019-02-18T04:53:53.765Z,55.7
2019-02-18T04:54:53.671Z,55.7
2019-02-18T04:55:53.990Z,55.7
2019-02-18T04:56:53.896Z,55.2
2019-02-18T05:05:52.215Z,53.9
2019-02-18T05:06:52.117Z,54.4
2019-02-18T05:07:52.063Z,54.6
2019-02-18T05:08:52.021Z,54.7
2019-02-18T05:09:51.943Z,54.6
2019-02-18T05:10:51.831Z,54.7
2019-02-18T05:11:51.731Z,54.8
2019-02-18T05:12:51.625Z,54.8
2019-02-18T05:13:51.571Z,54.9
2019-02-18T05:14:51.465Z,55
2019-02-18T05:15:51.811Z,55.2
2019-02-18T05:16:51.688Z,54.8
2019-02-18T05:25:50.005Z,53.7
2019-02-18T05:26:49.905Z,54.3
2019-02-18T05:27:49.796Z,54.5
2019-02-18T05:28:49.714Z,54.5
2019-02-18T05:29:49.681Z,54.5
2019-02-18T05:30:49.581Z,54.7
2019-02-18T05:31:49.615Z,54.8
2019-02-18T05:32:49.513Z,54.9
2019-02-18T05:33:49.413Z,55.1
2019-02-18T05:34:49.310Z,55
2019-02-18T05:35:49.649Z,55.1
2019-02-18T05:36:49.553Z,55.2
2019-02-18T05:37:49.495Z,55.3
2019-02-18T05:38:49.418Z,55.5
2019-02-18T05:39:49.322Z,55.5
2019-02-18T05:40:49.254Z,55.7
2019-02-18T05:41:49.177Z,55.7
2019-02-18T05:42:49.080Z,55.7
2019-02-18T05:43:49.026Z,55.8
2019-02-18T05:44:48.983Z,55.7
2019-02-18T05:45:49.353Z,55.9
2019-02-18T05:46:49.316Z,55.8
2019-02-18T05:47:49.272Z,55.8
2019-02-18T05:48:49.188Z,55.8
2019-02-18T05:49:49.085Z,55.6
2019-02-18T05:50:49.007Z,55.7
2019-02-18T05:51:49.054Z,55.6
2019-02-18T05:52:48.971Z,55.7
2019-02-18T05:53:48.883Z,55.8
2019-02-18T05:54:48.834Z,55.8
2019-02-18T05:55:49.167Z,55.8
2019-02-18T05:56:49.218Z,55.6
2019-02-18T05:57:49.149Z,55.7
2019-02-18T05:58:49.091Z,55.6
2019-02-18T05:59:49.000Z,55.8
2019-02-18T06:00:48.885Z,55.9
2019-02-18T06:01:48.824Z,55.9
2019-02-18T06:02:48.736Z,56.1
2019-02-18T06:03:48.698Z,55.9
2019-02-18T06:04:48.581Z,56
2019-02-18T06:05:48.982Z,56.1
2019-02-18T06:06:48.914Z,56.1
2019-02-18T06:07:48.795Z,56
2019-02-18T06:08:48.681Z,55.9
2019-02-18T06:09:48.582Z,56.1
2019-02-18T06:10:48.470Z,56.1
2019-02-18T06:11:48.369Z,56.1
2019-02-18T06:12:48.281Z,56.2
2019-02-18T06:13:48.242Z,56.2
2019-02-18T06:14:48.140Z,56.3
2019-02-18T06:15:48.452Z,56.2
2019-02-18T06:16:48.372Z,56
2019-02-18T06:17:48.276Z,56.2
2019-02-18T06:18:48.179Z,56.2
2019-02-18T06:19:48.068Z,56.4
2019-02-18T06:20:48.025Z,56.4
2019-02-18T06:21:47.915Z,56.3
2019-02-18T06:22:47.821Z,56.5
2019-02-18T06:23:47.723Z,56.4
2019-02-18T06:24:47.600Z,56.6
2019-02-18T06:25:47.968Z,56.3
2019-02-18T06:35:46.102Z,54.1
2019-02-18T06:36:46.004Z,54.6
2019-02-18T06:37:45.909Z,54.6
2019-02-18T06:38:45.822Z,54.7
2019-02-18T06:39:45.763Z,54.9
2019-02-18T06:40:45.666Z,54.9
2019-02-18T06:41:45.579Z,55
2019-02-18T06:42:45.487Z,55.1
2019-02-18T06:43:45.359Z,55.3
2019-02-18T06:44:45.264Z,55.6
2019-02-18T06:45:45.590Z,55.7
2019-02-18T06:46:45.503Z,55.7
2019-02-18T06:47:45.485Z,56
2019-02-18T06:48:45.404Z,56.1
2019-02-18T06:49:45.318Z,56.1
2019-02-18T06:50:45.211Z,56
2019-02-18T06:51:45.104Z,56.1
2019-02-18T06:52:45.005Z,56.2
2019-02-18T06:53:44.898Z,56.4
2019-02-18T06:54:44.788Z,56.5
2019-02-18T06:55:45.142Z,56.4
2019-02-18T06:56:45.038Z,56.3
2019-02-18T06:57:44.938Z,56.3
2019-02-18T06:58:44.824Z,56.2
2019-02-18T06:59:44.732Z,56
2019-02-18T07:00:44.642Z,56.2
2019-02-18T07:01:44.554Z,56
2019-02-18T07:02:44.477Z,56.1
2019-02-18T07:03:44.350Z,56.3
2019-02-18T07:04:44.254Z,56.2
2019-02-18T07:05:44.663Z,56.1
2019-02-18T07:06:44.580Z,56.1
2019-02-18T07:07:44.469Z,55.9
2019-02-18T07:08:44.374Z,55.8
2019-02-18T07:09:52.241Z,55.7
2019-02-18T07:10:52.128Z,55.5
2019-02-18T07:11:52.028Z,55.3
2019-02-18T07:12:51.938Z,55.1
2019-02-18T07:13:51.810Z,55.1
2019-02-18T07:14:51.706Z,55.1
2019-02-18T07:15:51.999Z,54.7
2019-02-18T07:16:51.898Z,55.2
2019-02-18T07:17:51.840Z,54.4
2019-02-18T07:18:51.736Z,54.5
2019-02-18T07:19:51.628Z,54.5
2019-02-18T07:20:51.520Z,54.4
2019-02-18T07:21:51.408Z,54.5
2019-02-18T07:22:51.296Z,54.3
2019-02-18T07:23:51.180Z,54
2019-02-18T07:24:51.072Z,53.8
2019-02-18T07:25:51.418Z,53.6
2019-02-18T07:26:51.338Z,54.4
2019-02-18T07:27:51.254Z,52.8
2019-02-18T07:35:49.772Z,50.1
2019-02-18T07:36:49.656Z,51.1
2019-02-18T07:37:49.551Z,50.8
2019-02-18T07:38:49.428Z,50.6
2019-02-18T07:39:49.388Z,50.5
2019-02-18T07:40:49.292Z,50.5
2019-02-18T07:41:49.173Z,50.3
2019-02-18T07:42:49.080Z,50
2019-02-18T07:43:48.974Z,49.7
2019-02-18T07:44:48.874Z,50.6
2019-02-18T07:45:49.242Z,50
2019-02-18T07:46:49.123Z,50.1
2019-02-18T07:47:49.026Z,49.8
2019-02-18T07:48:48.948Z,49.8
2019-02-18T07:49:48.838Z,49.3
2019-02-18T07:50:48.726Z,48.7
2019-02-18T07:51:48.621Z,48.7
2019-02-18T07:52:48.542Z,48.6
2019-02-18T07:53:48.458Z,48.5
2019-02-18T07:54:48.355Z,48.8
2019-02-18T07:55:48.664Z,48.6
2019-02-18T07:56:48.567Z,48.8
2019-02-18T07:57:48.465Z,48.6
2019-02-18T07:58:48.374Z,48.1
2019-02-18T07:59:48.268Z,48.1
2019-02-18T08:00:48.160Z,48
2019-02-18T08:01:48.048Z,47.4
2019-02-18T08:02:47.938Z,47.1
2019-02-18T08:03:47.839Z,47.1
2019-02-18T08:04:47.736Z,47
2019-02-18T08:05:48.064Z,46.4
2019-02-18T08:06:47.982Z,46.6
2019-02-18T08:07:47.887Z,46.1
2019-02-18T08:08:47.796Z,46.4
2019-02-18T08:09:47.711Z,46.1
2019-02-18T08:10:47.598Z,46.1
2019-02-18T08:11:47.507Z,46
2019-02-18T08:12:47.410Z,46.1
2019-02-18T08:13:47.311Z,45.7
2019-02-18T08:14:47.222Z,45.3
2019-02-18T08:15:47.548Z,45.4
2019-02-18T08:16:47.474Z,45.5
2019-02-18T08:17:47.377Z,45.7
2019-02-18T08:18:47.271Z,45.5
2019-02-18T08:19:47.295Z,44.7
2019-02-18T08:20:47.211Z,45.2
2019-02-18T08:21:47.136Z,45.1
2019-02-18T08:22:47.047Z,44.8
2019-02-18T08:23:46.952Z,44
2019-02-18T08:24:46.855Z,44.2
2019-02-18T08:25:47.202Z,44.3
2019-02-18T08:26:47.097Z,44.7
2019-02-18T08:27:47.030Z,44.9
2019-02-18T08:28:46.951Z,44.8
2019-02-18T08:29:46.855Z,44.6
2019-02-18T08:30:46.762Z,44.7
2019-02-18T08:31:46.669Z,44.4
2019-02-18T08:32:46.564Z,43.8
2019-02-18T08:33:46.471Z,44
2019-02-18T08:34:46.368Z,43.6
2019-02-18T08:35:46.688Z,43.5
2019-02-18T08:36:46.589Z,44
2019-02-18T08:37:46.473Z,44
2019-02-18T08:38:46.372Z,44.2
2019-02-18T08:39:46.273Z,44.1
2019-02-18T08:40:46.171Z,44
2019-02-18T08:41:46.064Z,43.7
2019-02-18T08:42:45.969Z,43.4
2019-02-18T08:43:45.859Z,43.9
2019-02-18T08:44:45.773Z,43.5
2019-02-18T08:45:46.096Z,43.5
2019-02-18T08:46:45.980Z,43.5
2019-02-18T08:47:45.851Z,43.4
2019-02-18T08:48:45.749Z,43.1
2019-02-18T08:49:45.720Z,42.9
2019-02-18T08:50:45.619Z,43
2019-02-18T08:51:45.533Z,43
2019-02-18T08:52:45.431Z,42.9
2019-02-18T08:53:47.706Z,43.1
2019-02-18T08:54:57.518Z,42.6
2019-02-18T08:55:57.858Z,42
2019-02-18T08:56:57.759Z,42.6
2019-02-18T08:57:57.649Z,41.7
2019-02-18T08:58:57.537Z,42.4
2019-02-18T08:59:57.450Z,42.7
2019-02-18T09:01:03.570Z,42.8
2019-02-18T09:02:03.506Z,42.9
2019-02-18T09:03:03.406Z,42.6
2019-02-18T09:04:03.303Z,42.2
2019-02-18T09:05:03.339Z,42.1
2019-02-18T09:06:03.825Z,42.2
2019-02-18T09:07:03.726Z,42.6
2019-02-18T09:08:03.638Z,42.4
2019-02-18T09:09:03.541Z,42.1
2019-02-18T09:10:03.459Z,41.7
2019-02-18T09:11:03.374Z,41.9
2019-02-18T09:12:03.291Z,42.2
2019-02-18T09:13:03.203Z,41.7
2019-02-18T09:14:03.107Z,40.7
2019-02-18T09:15:03.005Z,40.7
2019-02-18T09:16:03.321Z,40.8
2019-02-18T09:17:03.249Z,40.7
2019-02-18T09:18:03.220Z,41.2
2019-02-18T09:19:03.116Z,41.1
2019-02-18T09:20:03.031Z,40.2
2019-02-18T09:21:02.927Z,41
2019-02-18T09:22:02.869Z,41
2019-02-18T09:23:02.787Z,40.8
2019-02-18T09:24:02.696Z,41.4
2019-02-18T09:25:02.611Z,41.1
2019-02-18T09:26:02.940Z,41
2019-02-18T09:27:02.831Z,40.7
2019-02-18T09:28:02.734Z,40
2019-02-18T09:29:02.663Z,39.6
2019-02-18T09:30:02.665Z,40.3
2019-02-18T09:31:02.576Z,41
2019-02-18T09:32:02.479Z,40.9
2019-02-18T09:33:02.410Z,41.2
2019-02-18T09:34:02.324Z,39.7
2019-02-18T09:35:02.997Z,39.8
2019-02-18T09:36:03.327Z,40
2019-02-18T09:37:03.221Z,40.3
2019-02-18T09:38:03.143Z,40.6
2019-02-18T09:39:03.054Z,40.4
2019-02-18T09:40:02.975Z,39.9
2019-02-18T09:41:02.863Z,39.9
2019-02-18T09:42:02.806Z,40.4
2019-02-18T09:43:02.776Z,40.1
2019-02-18T09:44:02.673Z,39.6
2019-02-18T09:45:02.607Z,40.2
2019-02-18T09:46:02.908Z,40.3
2019-02-18T09:47:02.851Z,39.8
2019-02-18T09:48:02.742Z,39.5
2019-02-18T09:49:02.658Z,39.5
2019-02-18T09:50:02.588Z,39.3
2019-02-18T09:51:02.494Z,39.9
2019-02-18T09:52:02.382Z,39.8
2019-02-18T09:53:03.254Z,40.2
2019-02-18T09:54:03.155Z,40
2019-02-18T09:55:03.086Z,39.7
2019-02-18T09:56:03.425Z,40.1
2019-02-18T09:57:03.307Z,39.4
2019-02-18T09:58:03.193Z,39.7
2019-02-18T09:59:03.100Z,39.2
2019-02-18T10:00:03.032Z,39.7
2019-02-18T10:01:02.948Z,39.8
2019-02-18T10:02:02.848Z,39.8
2019-02-18T10:03:02.765Z,40
2019-02-18T10:04:02.656Z,39.9
2019-02-18T10:05:02.711Z,39.7
2019-02-18T10:06:03.237Z,39.7
2019-02-18T10:07:03.133Z,40
2019-02-18T10:08:03.023Z,39.7
2019-02-18T10:09:02.939Z,40
2019-02-18T10:10:05.408Z,39.6
2019-02-18T10:11:05.311Z,39.6
2019-02-18T10:12:05.198Z,38.6
2019-02-18T10:13:05.087Z,39.3
2019-02-18T10:14:04.987Z,37.9
2019-02-18T10:15:04.904Z,38.8
2019-02-18T10:16:05.263Z,39.2
2019-02-18T10:17:05.183Z,39.6
2019-02-18T10:18:05.094Z,39.8
2019-02-18T10:19:04.995Z,39.6
2019-02-18T10:20:04.899Z,39.5
2019-02-18T10:21:04.801Z,39.2
2019-02-18T10:22:04.743Z,39.4
2019-02-18T10:23:04.681Z,39.3
2019-02-18T10:24:04.599Z,38.8
2019-02-18T10:25:04.509Z,39.2
2019-02-18T10:26:04.821Z,39.6
2019-02-18T10:27:04.707Z,39
2019-02-18T10:28:04.603Z,39.7
2019-02-18T10:29:04.485Z,38.9
2019-02-18T10:30:04.422Z,38
2019-02-18T10:31:04.309Z,38.2
2019-02-18T10:32:04.237Z,38.7
2019-02-18T10:33:04.125Z,37
2019-02-18T10:34:04.019Z,37.4
2019-02-18T10:35:03.905Z,37.4
2019-02-18T10:36:04.268Z,37.3
2019-02-18T10:37:04.183Z,37.1
2019-02-18T10:38:04.069Z,38.1
2019-02-18T10:39:03.960Z,38.1
2019-02-18T10:40:03.889Z,38
2019-02-18T10:41:07.843Z,37.7
2019-02-18T10:42:07.821Z,37.5
2019-02-18T10:43:07.711Z,37.8
2019-02-18T10:44:07.616Z,38.6
2019-02-18T10:45:07.531Z,38
2019-02-18T10:46:07.991Z,37.9
2019-02-18T10:47:08.491Z,38.6
2019-02-18T10:48:08.953Z,38.3
2019-02-18T10:49:24.109Z,37.1
2019-02-18T10:50:24.714Z,37.2
2019-02-18T10:51:24.716Z,37.7
2019-02-18T10:52:24.686Z,36.3
2019-02-18T10:53:24.693Z,35.8
2019-02-18T10:54:24.697Z,36.1
2019-02-18T10:55:24.659Z,36.8
2019-02-18T10:56:25.081Z,37.5
2019-02-18T10:57:26.006Z,37.5
2019-02-18T10:58:26.756Z,37.9
2019-02-18T10:59:26.671Z,37.1
2019-02-18T11:00:26.612Z,36.7
2019-02-18T11:01:26.623Z,36.4
2019-02-18T11:02:26.551Z,36.3
2019-02-18T11:03:26.467Z,36.7
2019-02-18T11:04:26.415Z,36
2019-02-18T11:05:27.411Z,35.7
2019-02-18T11:06:29.045Z,36.3
2019-02-18T11:07:28.948Z,36.9
2019-02-18T11:08:28.878Z,36.7
2019-02-18T11:09:28.782Z,36.8
2019-02-18T11:10:28.665Z,37.1
2019-02-18T11:11:28.552Z,36.4
2019-02-18T11:12:28.495Z,36.7
2019-02-18T11:13:28.410Z,36.4
2019-02-18T11:14:28.339Z,36.5
2019-02-18T11:15:28.252Z,37.1
2019-02-18T11:16:28.930Z,36.5
2019-02-18T11:17:39.784Z,36.4
2019-02-18T11:18:40.854Z,35.8
2019-02-18T11:19:41.542Z,36.4
2019-02-18T11:20:41.476Z,36.4
2019-02-18T11:21:41.393Z,36.4
2019-02-18T11:22:41.355Z,35.7
2019-02-18T11:23:41.290Z,35.2
2019-02-18T11:24:41.216Z,34.8
2019-02-18T11:25:41.152Z,34.6
2019-02-18T11:26:42.292Z,35.4
2019-02-18T11:27:43.036Z,33.8
2019-02-18T11:28:42.976Z,34
2019-02-18T11:29:42.916Z,34.1
2019-02-18T11:30:42.939Z,33.4
2019-02-18T11:31:42.896Z,34.4
2019-02-18T11:32:42.828Z,33.8
2019-02-18T11:33:42.754Z,33.5
2019-02-18T11:34:43.550Z,33.1
2019-02-18T11:35:44.119Z,33.6
2019-02-18T11:36:44.502Z,34.7
2019-02-18T11:37:44.464Z,34
2019-02-18T11:38:44.415Z,33.2
2019-02-18T11:39:44.338Z,34.5
2019-02-18T11:40:44.275Z,35.6
2019-02-18T11:41:44.204Z,35.8
2019-02-18T11:42:44.764Z,35
2019-02-18T11:43:44.681Z,33.4
2019-02-18T11:44:44.599Z,32.9
2019-02-18T11:45:44.571Z,33.2
2019-02-18T11:46:44.988Z,33.8
2019-02-18T11:47:44.972Z,33.8
2019-02-18T11:48:44.944Z,34.2
2019-02-18T11:49:44.854Z,34.7
2019-02-18T11:50:44.864Z,35
2019-02-18T11:51:44.810Z,34.9
2019-02-18T11:52:44.776Z,34
2019-02-18T11:53:44.694Z,34.6
2019-02-18T11:54:44.624Z,34.9
2019-02-18T11:55:44.556Z,34.4
2019-02-18T11:56:44.929Z,34.7
2019-02-18T11:57:44.903Z,34.8
2019-02-18T11:58:44.906Z,34.2
2019-02-18T11:59:44.852Z,34
2019-02-18T12:00:44.815Z,33.9
2019-02-18T12:01:44.810Z,33.9
2019-02-18T12:02:44.828Z,34.2
2019-02-18T12:03:44.858Z,34.7
2019-02-18T12:04:44.812Z,34.7
2019-02-18T12:05:44.781Z,35
2019-02-18T12:06:46.090Z,35.7
2019-02-18T12:07:46.744Z,35.9
2019-02-18T12:08:46.712Z,36.2
2019-02-18T12:09:46.661Z,36.5
2019-02-18T12:10:46.646Z,36.7
2019-02-18T12:11:46.585Z,36.7
2019-02-18T12:12:46.568Z,36.6
2019-02-18T12:13:46.506Z,36.5
2019-02-18T12:14:47.522Z,36.4
2019-02-18T12:15:48.406Z,36.8
2019-02-18T12:16:48.942Z,36.9
2019-02-18T12:17:48.902Z,36.9
2019-02-18T12:18:48.847Z,36.4
2019-02-18T12:19:48.794Z,36.5
2019-02-18T12:20:48.754Z,36.3
2019-02-18T12:21:49.040Z,36.4
2019-02-18T12:22:49.032Z,36.4
2019-02-18T12:23:48.961Z,37
2019-02-18T12:24:48.892Z,35.9
2019-02-18T12:25:48.905Z,35.8
2019-02-18T12:26:50.613Z,35.3
2019-02-18T12:27:50.598Z,34.9
2019-02-18T12:28:50.566Z,35.3
2019-02-18T12:29:53.553Z,34.3
2019-02-18T12:30:53.598Z,34.8
2019-02-18T12:31:53.514Z,34.7
2019-02-18T12:32:53.493Z,34.8
2019-02-18T12:33:53.462Z,34.7
2019-02-18T12:34:53.398Z,35
2019-02-18T12:35:53.346Z,35.5
2019-02-18T12:36:53.741Z,35.2
2019-02-18T12:37:56.350Z,35.3
2019-02-18T12:38:57.248Z,35.3
2019-02-18T12:39:58.262Z,35.6
2019-02-18T12:40:58.200Z,35.8
2019-02-18T12:41:58.155Z,36
2019-02-18T12:42:58.126Z,35.8
2019-02-18T12:43:58.040Z,36.6
2019-02-18T12:44:58.028Z,36
2019-02-18T12:45:57.985Z,36.1
2019-02-18T12:46:59.309Z,36.1
2019-02-18T12:47:59.844Z,35.8
2019-02-18T12:48:59.839Z,35.5
2019-02-18T12:49:59.884Z,34.5
2019-02-18T12:51:00.074Z,34.1
2019-02-18T12:52:00.086Z,34.8
2019-02-18T12:53:00.180Z,35.3
2019-02-18T12:54:46.664Z,35.7
2019-02-18T12:55:47.290Z,35.5
2019-02-18T12:56:47.402Z,34.8
2019-02-18T12:57:47.987Z,35.2
2019-02-18T12:58:55.495Z,35.5
2019-02-18T12:59:56.552Z,35.6
2019-02-18T13:00:57.728Z,35.1
2019-02-18T13:01:58.399Z,35.2
2019-02-18T13:02:58.458Z,35.2
2019-02-18T13:03:58.534Z,35.6
2019-02-18T13:04:58.602Z,34.6
2019-02-18T13:05:58.650Z,34.1
2019-02-18T13:06:58.725Z,34.1
2019-02-18T13:07:59.468Z,33.7
2019-02-18T13:08:59.469Z,34.6
2019-02-18T13:09:59.464Z,35.1
2019-02-18T13:10:59.483Z,34.7
2019-02-18T13:12:00.139Z,33.9
2019-02-18T13:13:00.160Z,34
2019-02-18T13:14:00.188Z,33.9
2019-02-18T13:15:00.422Z,34.3
2019-02-18T13:16:01.420Z,34.2
2019-02-18T13:17:02.415Z,33.9
2019-02-18T13:19:03.910Z,33.5
2019-02-18T13:20:03.960Z,33.7
2019-02-18T13:21:04.017Z,33.5
2019-02-18T13:22:04.036Z,33.5
2019-02-18T13:23:04.351Z,33.3
2019-02-18T13:24:04.368Z,33.6
2019-02-18T13:25:04.348Z,32.1
2019-02-18T13:26:04.323Z,32.3
2019-02-18T13:27:04.270Z,32.5
2019-02-18T13:28:09.391Z,31.8
2019-02-18T13:29:09.402Z,30.7
2019-02-18T13:30:09.394Z,30.8
2019-02-18T13:31:09.407Z,31.4
2019-02-18T13:32:09.454Z,31.7
2019-02-18T13:33:09.712Z,31.6
2019-02-18T13:34:09.706Z,31.3
2019-02-18T13:35:09.662Z,30.8
2019-02-18T13:36:09.608Z,30.8
2019-02-18T13:37:09.552Z,31.1
2019-02-18T13:38:10.012Z,31.1
2019-02-18T13:39:10.750Z,31.4
2019-02-18T13:40:10.976Z,31.3
2019-02-18T13:41:10.908Z,31.8
2019-02-18T13:42:10.904Z,32
2019-02-18T13:43:10.856Z,32
2019-02-18T13:44:10.809Z,31.8
2019-02-18T13:45:10.788Z,32.2
2019-02-18T13:46:10.759Z,32.5
2019-02-18T13:47:11.553Z,32.7
2019-02-18T13:48:12.949Z,32.7
2019-02-18T13:49:12.952Z,32.4
2019-02-18T13:50:12.965Z,32.5
2019-02-18T13:51:12.934Z,32.6
2019-02-18T13:52:12.868Z,32.6
2019-02-18T13:53:12.822Z,32.5
2019-02-18T13:54:12.822Z,32.8
2019-02-18T13:55:13.742Z,33
2019-02-18T13:56:14.607Z,33
2019-02-18T13:57:14.646Z,33.4
2019-02-18T13:58:15.146Z,33.7
2019-02-18T13:59:15.102Z,33.8
2019-02-18T14:00:15.098Z,34.1
2019-02-18T14:01:15.084Z,34.4
2019-02-18T14:02:15.066Z,34.7
2019-02-18T14:03:15.780Z,34.5
2019-02-18T14:04:16.465Z,33.9
2019-02-18T14:05:16.444Z,34
2019-02-18T14:06:16.414Z,34.4
2019-02-18T14:07:16.371Z,35.1
2019-02-18T14:08:18.077Z,34.7
2019-02-18T14:09:18.030Z,34.7
2019-02-18T14:10:18.008Z,34.9
2019-02-18T14:11:18.747Z,34.8
2019-02-18T14:12:19.340Z,34.4
2019-02-18T14:13:19.296Z,34.1
2019-02-18T14:14:19.252Z,34.3
2019-02-18T14:15:19.220Z,34.6
2019-02-18T14:16:19.156Z,34.8
2019-02-18T14:17:19.120Z,34.9
2019-02-18T14:18:20.730Z,34.3
2019-02-18T14:19:21.322Z,34.1
2019-02-18T14:20:21.991Z,34.1
2019-02-18T14:21:21.952Z,34.2
2019-02-18T14:22:21.928Z,34.6
2019-02-18T14:23:21.933Z,34.9
2019-02-18T14:24:21.904Z,35.1
2019-02-18T14:25:21.884Z,36.2
2019-02-18T14:26:21.842Z,35.4
2019-02-18T14:27:22.725Z,35.7
2019-02-18T14:28:23.878Z,35.6
2019-02-18T14:29:23.850Z,35.5
2019-02-18T14:30:23.810Z,35.5
2019-02-18T14:31:23.827Z,35.7
2019-02-18T14:32:23.794Z,35.7
2019-02-18T14:33:23.721Z,35.5
2019-02-18T14:34:23.730Z,35.1
2019-02-18T14:35:24.555Z,34.9
2019-02-18T14:36:25.326Z,34.4
2019-02-18T14:37:25.384Z,34.1
2019-02-18T14:38:25.875Z,32.9
2019-02-18T14:39:25.934Z,31.8
2019-02-18T14:40:25.908Z,32.1
2019-02-18T14:41:25.861Z,32.2
2019-02-18T14:42:25.850Z,31.1
2019-02-18T14:43:26.552Z,30.9
2019-02-18T14:44:27.246Z,30.7
2019-02-18T14:45:27.274Z,30.8
2019-02-18T14:46:27.243Z,31.7
2019-02-18T14:47:27.208Z,31.9
2019-02-18T14:48:28.957Z,31.3
2019-02-18T14:49:28.924Z,31.4
2019-02-18T14:50:28.961Z,31.4
2019-02-18T14:51:29.666Z,31
2019-02-18T14:52:30.219Z,31.7
2019-02-18T14:53:30.207Z,31.9
2019-02-18T14:54:30.181Z,32.2
2019-02-18T14:55:30.152Z,31.6
2019-02-18T14:56:30.138Z,31.1
2019-02-18T14:57:30.123Z,31.3
2019-02-18T14:58:30.581Z,32
2019-02-18T14:59:31.352Z,32.1
2019-02-18T15:00:32.046Z,31.3
2019-02-18T15:01:32.008Z,30.7
2019-02-18T15:02:32.013Z,30.1
2019-02-18T15:03:31.970Z,30.4
2019-02-18T15:04:31.977Z,30.2
2019-02-18T15:05:31.955Z,30.3
2019-02-18T15:06:31.931Z,30.3
2019-02-18T15:07:32.670Z,30.4
2019-02-18T15:08:33.847Z,31.2
2019-02-18T15:09:33.794Z,31.2
2019-02-18T15:10:33.747Z,31.2
2019-02-18T15:11:33.697Z,30.7
2019-02-18T15:12:33.992Z,30.9
2019-02-18T15:13:33.927Z,31.2
2019-02-18T15:14:33.891Z,31.7